createdAt,value
2018-12-27T00:00:28.577Z,100463.13
2018-12-27T00:02:55.218Z,100457.04
2018-12-27T00:05:23.183Z,100460.95
2018-12-27T00:07:49.546Z,100463.09
2018-12-27T00:10:15.808Z,100457.02
2018-12-27T00:12:42.165Z,100460.94
2018-12-27T00:15:08.529Z,100454.84
2018-12-27T00:17:34.779Z,100458.31
2018-12-27T00:20:01.119Z,100454.84
2018-12-27T00:22:27.370Z,100465.67
2018-12-27T00:24:53.710Z,100452.67
2018-12-27T00:27:20.063Z,100456.17
2018-12-27T00:29:46.395Z,100446.63
2018-12-27T00:32:12.455Z,100456.16
2018-12-27T00:34:38.523Z,100451.83
2018-12-27T00:37:04.785Z,100448.81
2018-12-27T00:39:30.831Z,100449.27
2018-12-27T00:41:56.979Z,100451.01
2018-12-27T00:44:23.131Z,100444.96
2018-12-27T00:46:49.488Z,100445.86
2018-12-27T00:49:15.745Z,100449.75
2018-12-27T00:51:41.789Z,100457.59
2018-12-27T00:54:07.850Z,100453.27
2018-12-27T00:56:33.887Z,100451.98
2018-12-27T00:59:00.040Z,100451.56
2018-12-27T01:01:26.287Z,100454.59
2018-12-27T01:03:52.350Z,100452.45
2018-12-27T01:06:18.496Z,100449.86
2018-12-27T01:08:44.752Z,100450.29
2018-12-27T01:11:10.793Z,100458.50
2018-12-27T01:13:36.979Z,100448.54
2018-12-27T01:16:03.040Z,100447.24
2018-12-27T01:18:29.091Z,100435.55
2018-12-27T01:20:55.235Z,100443.77
2018-12-27T01:23:21.293Z,100433.83
2018-12-27T01:25:47.340Z,100430.79
2018-12-27T01:28:13.511Z,100432.50
2018-12-27T01:30:39.656Z,100432.92
2018-12-27T01:33:05.795Z,100432.50
2018-12-27T01:35:31.958Z,100436.39
2018-12-27T01:37:58.107Z,100429.92
2018-12-27T01:40:24.167Z,100425.13
2018-12-27T01:42:50.407Z,100424.30
2018-12-27T01:45:16.565Z,100430.36
2018-12-27T01:47:42.717Z,100426.47
2018-12-27T01:50:08.882Z,100422.59
2018-12-27T01:52:34.929Z,100427.36
2018-12-27T01:55:01.095Z,100412.63
2018-12-27T01:57:27.138Z,100418.27
2018-12-27T01:59:53.193Z,100423.03
2018-12-27T02:02:19.708Z,100417.00
2018-12-27T02:04:45.760Z,100410.95
2018-12-27T02:07:11.819Z,100419.59
2018-12-27T02:09:37.882Z,100414.42
2018-12-27T02:12:03.928Z,100418.73
2018-12-27T02:14:30.007Z,100427.84
2018-12-27T02:16:56.051Z,100414.84
2018-12-27T02:19:22.109Z,100406.63
2018-12-27T02:21:48.154Z,100410.53
2018-12-27T02:24:14.432Z,100409.24
2018-12-27T02:26:40.492Z,100411.84
2018-12-27T02:29:06.532Z,100414.87
2018-12-27T02:31:32.593Z,100347.42
2018-12-27T02:33:58.733Z,100402.73
2018-12-27T02:36:24.788Z,100407.52
2018-12-27T02:38:50.928Z,100403.59
2018-12-27T02:41:16.992Z,100402.74
2018-12-27T02:43:43.036Z,100394.11
2018-12-27T02:46:09.191Z,100388.89
2018-12-27T02:48:35.235Z,100390.63
2018-12-27T02:51:01.388Z,100380.26
2018-12-27T02:53:27.543Z,100389.34
2018-12-27T02:55:53.598Z,100379.83
2018-12-27T02:58:19.642Z,100381.54
2018-12-27T03:00:45.701Z,100390.16
2018-12-27T03:03:11.947Z,100385.87
2018-12-27T03:05:38.010Z,100378.09
2018-12-27T03:08:04.065Z,100363.39
2018-12-27T03:10:30.162Z,100370.72
2018-12-27T03:12:56.199Z,100368.55
2018-12-27T03:15:22.544Z,100378.94
2018-12-27T03:17:48.702Z,100374.18
2018-12-27T03:20:14.855Z,100366.81
2018-12-27T03:22:40.891Z,100367.68
2018-12-27T03:25:06.940Z,100361.22
2018-12-27T03:27:33.194Z,100362.52
2018-12-27T03:29:59.265Z,100356.91
2018-12-27T03:32:25.405Z,100365.97
2018-12-27T03:34:51.648Z,100369.82
2018-12-27T03:37:17.714Z,100362.05
2018-12-27T03:39:43.855Z,100356.88
2018-12-27T03:42:09.920Z,100352.13
2018-12-27T03:44:35.960Z,100351.27
2018-12-27T03:47:02.212Z,100353.85
2018-12-27T03:49:28.353Z,100352.97
2018-12-27T03:51:54.606Z,100347.80
2018-12-27T03:54:20.754Z,100358.15
2018-12-27T03:56:46.823Z,100361.16
2018-12-27T03:59:13.230Z,100358.14
2018-12-27T04:01:39.331Z,100350.38
2018-12-27T04:04:05.380Z,100350.80
2018-12-27T04:06:31.528Z,100350.36
2018-12-27T04:08:57.577Z,100349.06
2018-12-27T04:11:23.623Z,100346.45
2018-12-27T04:13:49.791Z,100343.41
2018-12-27T04:16:16.055Z,100336.07
2018-12-27T04:18:42.290Z,100345.58
2018-12-27T04:21:08.528Z,100346.86
2018-12-27T04:23:35.080Z,100343.38
2018-12-27T04:29:02.090Z,100331.31
2018-12-27T04:31:28.353Z,100331.74
2018-12-27T04:37:29.745Z,100326.56
2018-12-27T04:39:56.097Z,100336.53
2018-12-27T04:43:03.744Z,100328.34
2018-12-27T04:45:30.109Z,100332.66
2018-12-27T04:47:56.359Z,100331.80
2018-12-27T04:50:22.700Z,100328.37
2018-12-27T04:52:48.966Z,100338.29
2018-12-27T04:55:15.212Z,100326.19
2018-12-27T04:57:41.468Z,100321.02
2018-12-27T05:00:07.808Z,100315.86
2018-12-27T05:02:34.069Z,100313.67
2018-12-27T05:05:00.406Z,100316.71
2018-12-27T05:07:26.811Z,100314.10
2018-12-27T05:09:53.129Z,100316.73
2018-12-27T05:12:19.385Z,100323.63
2018-12-27T05:14:45.820Z,100328.37
2018-12-27T05:17:12.155Z,100330.52
2018-12-27T05:19:38.405Z,100329.24
2018-12-27T05:22:04.759Z,100320.58
2018-12-27T05:24:31.023Z,100326.65
2018-12-27T05:26:57.368Z,100331.81
2018-12-27T05:29:23.631Z,100330.11
2018-12-27T05:31:49.867Z,100332.70
2018-12-27T05:34:16.124Z,100329.23
2018-12-27T05:36:42.471Z,100330.54
2018-12-27T05:39:08.739Z,100328.81
2018-12-27T05:41:34.976Z,100330.11
2018-12-27T05:44:01.335Z,100328.80
2018-12-27T05:46:27.575Z,100322.75
2018-12-27T05:48:53.840Z,100322.34
2018-12-27T05:51:20.180Z,100325.37
2018-12-27T05:53:46.433Z,100325.78
2018-12-27T05:56:12.684Z,100320.59
2018-12-27T05:58:38.956Z,100314.55
2018-12-27T06:01:05.200Z,100324.06
2018-12-27T06:03:31.456Z,100327.08
2018-12-27T06:05:57.697Z,100327.09
2018-12-27T06:08:23.938Z,100322.75
2018-12-27T06:10:50.317Z,100318.44
2018-12-27T06:13:16.557Z,100315.41
2018-12-27T06:15:42.821Z,100306.78
2018-12-27T06:18:09.074Z,100305.90
2018-12-27T06:20:35.324Z,100304.63
2018-12-27T06:23:01.664Z,100269.17
2018-12-27T06:25:27.920Z,100304.20
2018-12-27T06:27:54.259Z,100309.80
2018-12-27T06:30:20.516Z,100302.03
2018-12-27T06:32:46.760Z,100291.23
2018-12-27T06:35:13.120Z,100296.41
2018-12-27T06:37:39.371Z,100302.45
2018-12-27T06:40:05.622Z,100253.19
2018-12-27T06:42:31.959Z,100311.12
2018-12-27T06:44:58.317Z,100320.61
2018-12-27T06:47:24.662Z,100318.47
2018-12-27T06:49:50.915Z,100317.16
2018-12-27T06:52:17.164Z,100322.77
2018-12-27T06:54:43.419Z,100326.24
2018-12-27T06:57:09.764Z,100330.98
2018-12-27T06:59:36.104Z,100334.00
2018-12-27T07:02:02.462Z,100330.11
2018-12-27T07:04:28.706Z,100329.27
2018-12-27T07:06:54.959Z,100330.98
2018-12-27T07:09:21.199Z,100326.23
2018-12-27T07:11:47.552Z,100321.92
2018-12-27T07:14:13.907Z,100315.85
2018-12-27T07:16:40.164Z,100307.22
2018-12-27T07:19:06.406Z,100310.23
2018-12-27T07:21:32.659Z,100315.84
2018-12-27T07:23:58.908Z,100309.38
2018-12-27T07:26:25.161Z,100301.61
2018-12-27T07:28:51.499Z,100294.27
2018-12-27T07:31:17.856Z,100299.88
2018-12-27T07:33:44.198Z,100296.41
2018-12-27T07:36:10.465Z,100283.88
2018-12-27T07:38:36.715Z,100283.89
2018-12-27T07:41:02.982Z,100284.73
2018-12-27T07:43:29.240Z,100284.29
2018-12-27T07:45:55.658Z,100282.14
2018-12-27T07:48:22.012Z,100286.45
2018-12-27T07:50:48.254Z,100282.59
2018-12-27T07:53:14.509Z,100286.88
2018-12-27T07:55:40.752Z,100285.59
2018-12-27T07:58:07.031Z,100289.05
2018-12-27T08:00:33.284Z,100285.59
2018-12-27T08:02:59.524Z,100284.72
2018-12-27T08:05:25.776Z,100286.45
2018-12-27T08:07:52.035Z,100277.36
2018-12-27T08:10:18.372Z,100292.50
2018-12-27T08:12:44.735Z,100290.34
2018-12-27T08:15:11.092Z,100287.73
2018-12-27T08:17:37.353Z,100287.73
2018-12-27T08:23:17.359Z,100283.83
2018-12-27T08:25:43.607Z,100274.74
2018-12-27T08:28:09.968Z,100268.24
2018-12-27T08:30:36.214Z,100268.67
2018-12-27T08:33:02.567Z,100272.55
2018-12-27T08:35:28.905Z,100274.73
2018-12-27T08:37:55.155Z,100279.91
2018-12-27T08:40:21.395Z,100274.70
2018-12-27T08:42:47.651Z,100274.26
2018-12-27T08:45:14.012Z,100276.86
2018-12-27T08:47:40.245Z,100282.03
2018-12-27T08:50:47.895Z,100284.20
2018-12-27T08:53:14.269Z,100273.38
2018-12-27T08:55:40.610Z,100281.59
2018-12-27T08:58:06.967Z,100277.70
2018-12-27T09:00:33.207Z,100275.54
2018-12-27T09:02:59.476Z,100266.89
2018-12-27T09:05:25.827Z,100267.30
2018-12-27T09:07:52.088Z,100262.55
2018-12-27T09:10:18.323Z,100256.48
2018-12-27T09:12:44.589Z,100255.17
2018-12-27T09:15:10.843Z,100255.16
2018-12-27T09:17:37.210Z,100247.37
2018-12-27T09:23:16.823Z,100243.44
2018-12-27T09:25:43.055Z,100244.31
2018-12-27T09:28:09.314Z,100239.96
2018-12-27T09:30:35.654Z,100237.80
2018-12-27T09:33:02.012Z,100237.78
2018-12-27T09:35:28.260Z,100234.31
2018-12-27T09:37:54.515Z,100233.45
2018-12-27T09:40:20.865Z,100228.66
2018-12-27T09:42:47.221Z,100219.95
2018-12-27T09:45:13.469Z,100222.55
2018-12-27T09:47:39.714Z,100227.28
2018-12-27T09:50:06.075Z,100217.77
2018-12-27T09:52:32.415Z,100216.02
2018-12-27T09:54:58.675Z,100212.06
2018-12-27T09:57:25.021Z,100187.43
2018-12-27T09:59:51.380Z,100204.66
2018-12-27T10:02:17.790Z,100206.77
2018-12-27T10:04:44.079Z,100213.61
2018-12-27T10:07:10.320Z,100207.48
2018-12-27T10:09:36.680Z,100210.03
2018-12-27T10:12:02.927Z,100210.88
2018-12-27T10:14:29.180Z,100201.31
2018-12-27T10:16:55.456Z,100205.21
2018-12-27T10:19:21.814Z,100203.88
2018-12-27T10:21:48.052Z,100197.81
2018-12-27T10:24:14.315Z,100191.25
2018-12-27T10:26:40.656Z,100195.59
2018-12-27T10:29:06.916Z,100190.36
2018-12-27T10:31:33.149Z,100189.86
2018-12-27T10:33:59.393Z,100196.27
2018-12-27T10:36:25.657Z,100191.43
2018-12-27T10:41:53.452Z,100190.46
2018-12-27T10:44:20.687Z,100189.55
2018-12-27T10:46:46.939Z,100186.02
2018-12-27T10:49:13.181Z,100192.05
2018-12-27T10:51:39.542Z,100186.37
2018-12-27T10:54:05.781Z,100178.02
2018-12-27T10:56:32.101Z,100178.84
2018-12-27T10:58:58.337Z,100177.77
2018-12-27T11:01:24.693Z,100177.41
2018-12-27T11:03:50.940Z,100176.52
2018-12-27T11:06:17.201Z,100169.13
2018-12-27T11:08:43.437Z,100169.44
2018-12-27T11:11:09.690Z,100171.56
2018-12-27T11:13:36.043Z,100166.27
2018-12-27T11:16:02.321Z,100159.03
2018-12-27T11:18:28.700Z,100155.13
2018-12-27T11:20:54.928Z,100151.21
2018-12-27T11:23:21.177Z,100146.00
2018-12-27T11:25:48.570Z,100144.23
2018-12-27T11:28:15.698Z,100139.78
2018-12-27T11:30:42.053Z,100138.00
2018-12-27T11:33:08.288Z,100140.60
2018-12-27T11:35:34.547Z,100141.46
2018-12-27T11:38:00.787Z,100140.00
2018-12-27T11:40:27.037Z,100140.30
2018-12-27T11:42:53.285Z,100141.16
2018-12-27T11:45:19.533Z,100140.76
2018-12-27T11:47:45.791Z,100138.16
2018-12-27T11:50:12.044Z,100139.03
2018-12-27T11:52:38.421Z,100135.13
2018-12-27T11:55:46.072Z,100143.81
2018-12-27T11:58:12.433Z,100136.87
2018-12-27T12:00:38.776Z,100139.53
2018-12-27T12:03:05.115Z,100136.09
2018-12-27T12:05:31.399Z,100129.16
2018-12-27T12:07:57.661Z,100129.63
2018-12-27T12:10:23.900Z,100127.41
2018-12-27T12:12:50.151Z,100126.91
2018-12-27T12:15:16.521Z,100119.09
2018-12-27T12:17:42.779Z,100122.14
2018-12-27T12:20:09.128Z,100118.67
2018-12-27T12:22:35.376Z,100122.14
2018-12-27T12:25:01.736Z,100112.16
2018-12-27T12:27:27.968Z,100120.03
2018-12-27T12:29:54.312Z,100118.33
2018-12-27T12:32:20.673Z,100117.03
2018-12-27T12:34:47.017Z,100112.69
2018-12-27T12:37:14.187Z,100111.44
2018-12-27T12:39:41.536Z,100110.58
2018-12-27T12:42:07.895Z,100117.95
2018-12-27T12:44:34.136Z,100118.67
2018-12-27T12:47:00.480Z,100111.55
2018-12-27T12:49:26.845Z,100111.07
2018-12-27T12:51:53.092Z,100113.34
2018-12-27T12:54:19.347Z,100113.83
2018-12-27T12:56:45.699Z,100109.92
2018-12-27T12:59:11.949Z,100112.11
2018-12-27T13:01:38.191Z,100104.77
2018-12-27T13:04:04.455Z,100106.95
2018-12-27T13:06:30.700Z,100108.73
2018-12-27T13:08:56.955Z,100106.56
2018-12-27T13:11:23.299Z,100110.52
2018-12-27T13:13:49.661Z,100112.70
2018-12-27T13:16:15.924Z,100114.09
2018-12-27T13:18:47.237Z,100105.47
2018-12-27T13:21:10.327Z,100108.55
2018-12-27T13:23:36.589Z,100103.02
2018-12-27T13:26:02.932Z,100111.31
2018-12-27T13:28:29.192Z,100111.36
2018-12-27T13:30:55.432Z,100103.61
2018-12-27T13:33:21.691Z,100105.44
2018-12-27T13:35:48.045Z,100103.33
2018-12-27T13:38:14.399Z,100112.48
2018-12-27T13:40:40.637Z,100104.32
2018-12-27T13:43:06.876Z,100104.34
2018-12-27T13:45:33.128Z,100102.25
2018-12-27T13:47:59.472Z,100103.64
2018-12-27T13:50:25.826Z,100113.16
2018-12-27T13:52:52.161Z,100103.69
2018-12-27T13:55:18.511Z,100104.09
2018-12-27T13:57:51.775Z,100110.64
2018-12-27T14:00:18.034Z,100114.14
2018-12-27T14:02:44.276Z,100114.67
2018-12-27T14:05:10.531Z,100106.08
2018-12-27T14:07:36.777Z,100104.82
2018-12-27T14:10:44.440Z,100106.13
2018-12-27T14:13:10.701Z,100105.73
2018-12-27T14:15:37.082Z,100106.16
2018-12-27T14:18:03.333Z,100113.14
2018-12-27T14:20:29.689Z,100112.71
2018-12-27T14:22:55.933Z,100112.75
2018-12-27T14:25:22.187Z,100109.76
2018-12-27T14:27:48.426Z,100111.53
2018-12-27T14:30:14.684Z,100119.81
2018-12-27T14:32:40.925Z,100117.68
2018-12-27T14:35:07.176Z,100121.19
2018-12-27T14:37:33.515Z,100121.22
2018-12-27T14:39:59.779Z,100116.45
2018-12-27T14:42:26.024Z,100113.06
2018-12-27T14:44:52.384Z,100113.06
2018-12-27T14:47:18.720Z,100108.77
2018-12-27T14:49:44.981Z,100110.93
2018-12-27T14:52:11.323Z,100101.39
2018-12-27T14:54:37.563Z,100101.87
2018-12-27T14:57:04.030Z,100107.53
2018-12-27T14:59:30.278Z,100105.41
2018-12-27T15:01:56.528Z,100107.21
2018-12-27T15:04:22.771Z,100106.38
2018-12-27T15:06:49.028Z,100114.21
2018-12-27T15:09:15.276Z,100116.38
2018-12-27T15:11:41.535Z,100124.18
2018-12-27T15:14:07.780Z,100122.05
2018-12-27T15:16:34.055Z,100122.11
2018-12-27T15:19:00.300Z,100126.88
2018-12-27T15:21:26.565Z,100124.73
2018-12-27T15:23:52.813Z,100127.38
2018-12-27T15:26:19.069Z,100135.20
2018-12-27T15:28:45.304Z,100147.33
2018-12-27T15:31:11.561Z,100144.29
2018-12-27T15:33:37.800Z,100141.70
2018-12-27T15:36:04.052Z,100143.48
2018-12-27T15:38:30.406Z,100140.92
2018-12-27T15:40:56.673Z,100136.59
2018-12-27T15:43:23.027Z,100139.21
2018-12-27T15:45:49.287Z,100140.55
2018-12-27T15:48:15.631Z,100129.30
2018-12-27T15:50:41.867Z,100128.47
2018-12-27T15:53:08.130Z,100131.52
2018-12-27T15:55:34.376Z,100138.48
2018-12-27T15:58:00.736Z,100138.08
2018-12-27T16:00:26.976Z,100144.13
2018-12-27T16:02:53.227Z,100138.06
2018-12-27T16:05:19.470Z,100135.52
2018-12-27T16:07:45.729Z,100142.06
2018-12-27T16:10:11.971Z,100135.16
2018-12-27T16:12:38.227Z,100145.14
2018-12-27T16:15:36.988Z,100140.84
2018-12-27T16:18:03.371Z,100137.83
2018-12-27T16:20:29.637Z,100140.45
2018-12-27T16:22:55.910Z,100136.55
2018-12-27T16:25:22.161Z,100140.42
2018-12-27T16:27:48.516Z,100144.33
2018-12-27T16:30:14.877Z,100144.38
2018-12-27T16:32:41.135Z,100146.13
2018-12-27T16:35:07.375Z,100144.41
2018-12-27T16:37:33.745Z,100152.64
2018-12-27T16:40:00.254Z,100148.34
2018-12-27T16:42:26.531Z,100151.80
2018-12-27T16:44:52.772Z,100151.80
2018-12-27T16:47:19.028Z,100147.92
2018-12-27T16:49:45.269Z,100153.54
2018-12-27T16:52:11.530Z,100153.13
2018-12-27T16:54:37.868Z,100148.84
2018-12-27T16:57:04.114Z,100150.98
2018-12-27T16:59:30.467Z,100152.70
2018-12-27T17:01:56.702Z,100157.92
2018-12-27T17:04:22.956Z,100151.39
2018-12-27T17:06:49.191Z,100160.06
2018-12-27T17:09:15.447Z,100163.52
2018-12-27T17:11:41.687Z,100157.91
2018-12-27T17:14:08.041Z,100159.23
2018-12-27T17:16:34.396Z,100152.31
2018-12-27T17:19:00.647Z,100143.64
2018-12-27T17:21:27.001Z,100143.64
2018-12-27T17:23:53.252Z,100142.37
2018-12-27T17:26:19.494Z,100142.78
2018-12-27T17:28:45.851Z,100154.01
2018-12-27T17:31:12.196Z,100159.66
2018-12-27T17:33:38.456Z,100157.06
2018-12-27T17:36:04.814Z,100157.05
2018-12-27T17:38:31.062Z,100164.00
2018-12-27T17:40:57.406Z,100162.27
2018-12-27T17:43:23.661Z,100157.08
2018-12-27T17:45:50.003Z,100162.24
2018-12-27T17:48:16.258Z,100163.52
2018-12-27T17:50:42.500Z,100169.16
2018-12-27T17:53:08.836Z,100164.84
2018-12-27T17:55:35.091Z,100160.95
2018-12-27T17:58:01.335Z,100160.93
2018-12-27T18:00:27.696Z,100164.38
2018-12-27T18:02:53.941Z,100163.49
2018-12-27T18:05:20.303Z,100163.45
2018-12-27T18:07:46.551Z,100164.33
2018-12-27T18:10:12.900Z,100167.77
2018-12-27T18:12:39.235Z,100166.45
2018-12-27T18:15:05.710Z,100159.94
2018-12-27T18:17:32.079Z,100165.95
2018-12-27T18:19:58.332Z,100168.12
2018-12-27T18:22:24.576Z,100175.89
2018-12-27T18:24:50.934Z,100168.08
2018-12-27T18:30:24.541Z,100179.74
2018-12-27T18:32:50.783Z,100183.59
2018-12-27T18:35:17.034Z,100175.73
2018-12-27T18:37:43.359Z,100175.28
2018-12-27T18:40:09.660Z,100180.91
2018-12-27T18:42:35.914Z,100176.59
2018-12-27T18:45:02.167Z,100179.63
2018-12-27T18:47:28.423Z,100180.94
2018-12-27T18:49:54.784Z,100180.05
2018-12-27T18:52:21.123Z,100180.88
2018-12-27T18:54:47.491Z,100186.06
2018-12-27T18:57:33.585Z,100188.20
2018-12-27T18:59:59.962Z,100196.86
2018-12-27T19:02:26.305Z,100201.20
2018-12-27T19:04:52.662Z,100203.36
2018-12-27T19:07:19.053Z,100204.20
2018-12-27T19:09:45.398Z,100199.00
2018-12-27T19:12:51.252Z,100209.80
2018-12-27T19:15:17.638Z,100209.35
2018-12-27T19:18:25.385Z,100208.91
2018-12-27T19:21:33.060Z,100205.86
2018-12-27T19:23:59.317Z,100213.23
2018-12-27T19:26:25.680Z,100219.29
2018-12-27T19:28:51.937Z,100220.59
2018-12-27T19:31:18.188Z,100218.83
2018-12-27T19:33:44.452Z,100222.30
2018-12-27T19:36:10.820Z,100217.96
2018-12-27T19:38:37.161Z,100214.93
2018-12-27T19:41:03.440Z,100217.09
2018-12-27T19:43:29.785Z,100223.59
2018-12-27T19:45:56.272Z,100219.72
2018-12-27T19:48:22.619Z,100214.50
2018-12-27T19:50:48.960Z,100224.03
2018-12-27T19:53:15.222Z,100221.00
2018-12-27T19:55:41.473Z,100219.67
2018-12-27T19:58:07.742Z,100217.06
2018-12-27T20:00:33.992Z,100217.98
2018-12-27T20:03:00.294Z,100217.58
2018-12-27T20:05:26.538Z,100210.27
2018-12-27T20:07:59.101Z,100214.61
2018-12-27T20:10:21.064Z,100216.39
2018-12-27T20:12:47.433Z,100220.77
2018-12-27T20:15:13.800Z,100216.04
2018-12-27T20:17:40.173Z,100216.95
2018-12-27T20:20:06.624Z,100223.05
2018-12-27T20:22:32.998Z,100214.84
2018-12-27T20:24:59.365Z,100219.18
2018-12-27T20:27:25.719Z,100215.74
2018-12-27T20:29:52.063Z,100219.63
2018-12-27T20:32:18.343Z,100224.86
2018-12-27T20:34:44.691Z,100224.03
2018-12-27T20:37:11.056Z,100223.61
2018-12-27T20:39:37.403Z,100222.79
2018-12-27T20:42:03.753Z,100223.66
2018-12-27T20:44:30.111Z,100218.48
2018-12-27T20:46:56.367Z,100214.61
2018-12-27T20:49:22.633Z,100221.97
2018-12-27T20:51:48.984Z,100223.70
2018-12-27T20:54:15.246Z,100220.25
2018-12-27T20:56:41.584Z,100221.14
2018-12-27T20:59:07.945Z,100227.20
2018-12-27T21:01:34.292Z,100220.30
2018-12-27T21:04:00.653Z,100222.45
2018-12-27T21:06:26.994Z,100228.97
2018-12-27T21:08:53.359Z,100230.26
2018-12-27T21:11:19.701Z,100231.14
2018-12-27T21:13:45.964Z,100228.11
2018-12-27T21:16:12.327Z,100233.73
2018-12-27T21:18:38.595Z,100231.14
2018-12-27T21:21:04.843Z,100228.58
2018-12-27T21:23:31.191Z,100228.14
2018-12-27T21:25:57.437Z,100234.63
2018-12-27T21:28:23.702Z,100230.31
2018-12-27T21:30:49.940Z,100229.89
2018-12-27T21:33:16.299Z,100234.63
2018-12-27T21:35:42.547Z,100232.45
2018-12-27T21:38:08.889Z,100232.05
2018-12-27T21:40:35.256Z,100228.14
2018-12-27T21:43:01.596Z,100233.36
2018-12-27T21:45:27.955Z,100233.34
2018-12-27T21:47:54.301Z,100232.48
2018-12-27T21:50:20.654Z,100238.96
2018-12-27T21:52:46.992Z,100239.82
2018-12-27T21:55:13.247Z,100245.00
2018-12-27T21:57:39.601Z,100242.42
2018-12-27T22:00:47.260Z,100239.84
2018-12-27T22:03:13.521Z,100237.67
2018-12-27T22:05:39.878Z,100234.65
2018-12-27T22:08:06.128Z,100241.56
2018-12-27T22:10:32.499Z,100229.04
2018-12-27T22:12:58.747Z,100240.69
2018-12-27T22:15:25.118Z,100248.89
2018-12-27T22:17:51.460Z,100238.53
2018-12-27T22:20:17.826Z,100233.77
2018-12-27T22:22:44.168Z,100248.45
2018-12-27T22:25:10.426Z,100241.56
2018-12-27T22:27:36.667Z,100241.55
2018-12-27T22:30:44.324Z,100252.34
2018-12-27T22:33:10.681Z,100255.81
2018-12-27T22:35:37.046Z,100255.81
2018-12-27T22:38:03.389Z,100260.56
2018-12-27T22:40:29.741Z,100264.01
2018-12-27T22:42:56.101Z,100261.41
2018-12-27T22:45:22.460Z,100261.87
2018-12-27T22:47:48.707Z,100265.30
2018-12-27T22:50:14.969Z,100258.41
2018-12-27T22:52:41.222Z,100263.57
2018-12-27T22:55:07.579Z,100272.64
2018-12-27T22:57:33.924Z,100270.05
2018-12-27T23:02:32.847Z,100268.76
2018-12-27T23:04:59.099Z,100280.00
2018-12-27T23:07:25.467Z,100279.12
2018-12-27T23:09:51.715Z,100281.31
2018-12-27T23:12:18.092Z,100283.90
2018-12-27T23:14:44.440Z,100276.55
2018-12-27T23:17:10.716Z,100280.01
2018-12-27T23:19:37.080Z,100287.34
2018-12-27T23:22:03.459Z,100289.05
2018-12-27T23:24:29.825Z,100295.13
2018-12-27T23:26:56.191Z,100296.42
2018-12-27T23:29:22.435Z,100297.70
2018-12-27T23:31:48.693Z,100300.30
2018-12-27T23:34:15.032Z,100304.63
2018-12-27T23:36:41.390Z,100306.78
2018-12-27T23:39:07.641Z,100302.05
2018-12-27T23:41:33.952Z,100307.66
2018-12-27T23:44:00.192Z,100313.67
2018-12-27T23:46:26.538Z,100312.83
2018-12-27T23:48:52.791Z,100312.38
2018-12-27T23:51:19.148Z,100313.27
2018-12-27T23:53:45.495Z,100317.11
2018-12-27T23:56:11.848Z,100321.88
2018-12-27T23:58:38.192Z,100322.72
